Sugar Hill, Georgia
Current Conditions -  °F | °C
As of 11:26 AM on Sunday 23 Nov 2014 (Local Time) from KGVL Reporting Station
Moderate Rain Moderate Rain  
Wind Chill: 41°   Ceiling: 400
Heat Index: 47°   Visibility: 1.5mi
Dew Point: 46°   Wind: 15mph
Humidity: 97%   Direction: 90°E
Pressure: 30.01"   Gusts: NA
Location:  34.1183°N, 84.0234°W
Report Text: KGVL 231626Z AUTO 09013KT 1 1/2SM RA BR OVC004 08/08 A3001 RMK AO2 P0005 T00830078
Loading
Personal Weather Stations






























Interactive Weather Map New forecast layout! Learn more

10-Day Weather Forecast

Advertisements
Track Severe Weather on mobile